createdAt,value
2018-07-31T00:01:39.443Z,5.77
2018-07-31T00:04:36.687Z,5.30
2018-07-31T00:07:34.047Z,6.30
2018-07-31T00:10:31.881Z,6.30
2018-07-31T00:13:29.748Z,6.10
2018-07-31T00:16:27.799Z,6.27
2018-07-31T00:19:25.052Z,6.30
2018-07-31T00:22:22.594Z,6.10
2018-07-31T00:25:19.807Z,5.80
2018-07-31T00:28:17.783Z,6.40
2018-07-31T00:31:14.878Z,6.60
2018-07-31T00:34:12.628Z,6.13
2018-07-31T00:37:10.009Z,7.07
2018-07-31T00:40:07.100Z,6.10
2018-07-31T00:43:05.046Z,6.63
2018-07-31T00:46:02.108Z,6.00
2018-07-31T00:48:59.160Z,6.47
2018-07-31T00:51:57.140Z,5.87
2018-07-31T00:54:55.112Z,5.83
2018-07-31T00:57:52.175Z,5.47
2018-07-31T01:00:49.436Z,5.90
2018-07-31T01:03:47.206Z,6.30
2018-07-31T01:06:48.652Z,7.13
2018-07-31T01:09:46.622Z,6.03
2018-07-31T01:12:43.790Z,6.43
2018-07-31T01:15:41.883Z,6.73
2018-07-31T01:18:38.966Z,6.03
2018-07-31T01:21:36.360Z,6.37
2018-07-31T01:24:34.140Z,6.43
2018-07-31T01:27:31.721Z,6.20
2018-07-31T01:30:28.816Z,5.83
2018-07-31T01:33:26.026Z,5.87
2018-07-31T01:36:23.248Z,6.37
2018-07-31T01:39:22.236Z,6.33
2018-07-31T01:42:20.163Z,6.03
2018-07-31T01:45:17.430Z,6.53
2018-07-31T01:48:14.667Z,6.10
2018-07-31T01:51:11.699Z,6.53
2018-07-31T01:54:09.797Z,6.17
2018-07-31T01:57:06.736Z,7.40
2018-07-31T02:00:04.804Z,6.37
2018-07-31T02:03:02.770Z,5.83
2018-07-31T02:06:00.850Z,6.50
2018-07-31T02:08:58.898Z,6.93
2018-07-31T02:11:56.866Z,6.23
2018-07-31T02:14:53.957Z,6.47
2018-07-31T02:17:50.995Z,6.40
2018-07-31T02:20:48.819Z,6.67
2018-07-31T02:23:46.880Z,6.23
2018-07-31T02:26:44.067Z,6.63
2018-07-31T02:29:47.759Z,6.33
2018-07-31T02:32:46.527Z,6.30
2018-07-31T02:35:44.294Z,6.33
2018-07-31T02:38:41.951Z,7.30
2018-07-31T02:41:39.943Z,7.07
2018-07-31T02:44:38.016Z,6.17
2018-07-31T02:47:35.168Z,6.20
2018-07-31T02:50:33.154Z,5.70
2018-07-31T02:53:31.191Z,6.80
2018-07-31T02:56:28.883Z,7.07
2018-07-31T02:59:26.546Z,6.67
2018-07-31T03:02:24.548Z,6.63
2018-07-31T03:05:22.508Z,6.53
2018-07-31T03:08:20.580Z,6.60
2018-07-31T03:11:17.555Z,6.63
2018-07-31T03:14:14.504Z,6.03
2018-07-31T03:17:12.558Z,6.83
2018-07-31T03:20:10.539Z,6.43
2018-07-31T03:23:07.688Z,6.17
2018-07-31T03:26:04.756Z,6.93
2018-07-31T03:29:02.672Z,6.87
2018-07-31T03:32:01.805Z,6.73
2018-07-31T03:34:59.825Z,6.87
2018-07-31T03:37:57.163Z,6.70
2018-07-31T03:40:54.423Z,7.10
2018-07-31T03:43:51.859Z,6.47
2018-07-31T03:46:49.548Z,6.43
2018-07-31T03:49:47.352Z,6.90
2018-07-31T03:52:45.287Z,6.40
2018-07-31T03:55:43.327Z,6.70
2018-07-31T03:58:40.318Z,6.77
2018-07-31T04:01:37.579Z,6.53
2018-07-31T04:04:35.299Z,6.50
2018-07-31T04:07:33.211Z,6.30
2018-07-31T04:10:31.071Z,6.90
2018-07-31T04:13:29.144Z,7.00
2018-07-31T04:16:27.029Z,7.00
2018-07-31T04:19:24.007Z,6.53
2018-07-31T04:22:21.983Z,6.97
2018-07-31T04:25:19.927Z,5.90
2018-07-31T04:28:17.882Z,6.73
2018-07-31T04:31:15.063Z,5.83
2018-07-31T04:34:12.016Z,6.57
2018-07-31T04:37:09.051Z,6.40
2018-07-31T04:40:06.241Z,6.20
2018-07-31T04:43:04.144Z,6.13
2018-07-31T04:46:01.853Z,7.53
2018-07-31T04:48:59.531Z,6.20
2018-07-31T04:51:57.286Z,6.50
2018-07-31T04:54:54.644Z,6.07
2018-07-31T04:57:52.296Z,5.73
2018-07-31T05:00:50.007Z,5.87
2018-07-31T05:03:47.871Z,5.80
2018-07-31T05:06:44.985Z,6.37
2018-07-31T05:09:42.066Z,6.37
2018-07-31T05:12:39.312Z,5.83
2018-07-31T05:15:37.255Z,6.30
2018-07-31T05:18:35.145Z,5.83
2018-07-31T05:21:32.440Z,6.83
2018-07-31T05:24:29.616Z,6.00
2018-07-31T05:27:27.367Z,6.87
2018-07-31T05:30:24.678Z,6.37
2018-07-31T05:33:22.503Z,6.53
2018-07-31T05:36:19.750Z,7.37
2018-07-31T05:39:18.228Z,6.43
2018-07-31T05:42:15.396Z,6.90
2018-07-31T05:45:13.047Z,7.03
2018-07-31T05:48:10.401Z,6.27
2018-07-31T05:51:08.084Z,6.40
2018-07-31T05:54:05.428Z,7.00
2018-07-31T05:57:02.834Z,6.73
2018-07-31T06:00:00.472Z,7.50
2018-07-31T06:02:58.352Z,7.00
2018-07-31T06:05:55.777Z,7.60
2018-07-31T06:08:52.948Z,6.57
2018-07-31T06:11:50.877Z,7.05
2018-07-31T06:14:48.610Z,6.00
2018-07-31T06:17:45.831Z,6.70
2018-07-31T06:20:43.412Z,6.47
2018-07-31T06:23:40.864Z,7.00
2018-07-31T06:26:37.900Z,6.25
2018-07-31T06:29:35.884Z,5.87
2018-07-31T06:32:32.829Z,6.58
2018-07-31T06:35:29.894Z,5.87
2018-07-31T06:38:27.876Z,6.35
2018-07-31T06:41:25.616Z,6.53
2018-07-31T06:44:23.139Z,6.53
2018-07-31T06:47:20.587Z,6.53
2018-07-31T06:50:18.299Z,6.00
2018-07-31T06:53:15.704Z,7.10
2018-07-31T06:56:13.269Z,6.87
2018-07-31T06:59:10.939Z,6.97
2018-07-31T07:02:08.364Z,8.38
2018-07-31T07:05:05.963Z,7.22
2018-07-31T07:08:03.893Z,8.73
2018-07-31T07:11:01.694Z,7.58
2018-07-31T07:13:59.531Z,7.50
2018-07-31T07:16:56.632Z,7.72
2018-07-31T07:19:53.888Z,7.47
2018-07-31T07:22:51.028Z,7.37
2018-07-31T07:25:49.026Z,7.58
2018-07-31T07:28:46.903Z,7.85
2018-07-31T07:31:44.759Z,6.83
2018-07-31T07:34:42.848Z,6.75
2018-07-31T07:37:40.551Z,6.90
2018-07-31T07:40:38.573Z,5.80
2018-07-31T07:43:35.835Z,6.05
2018-07-31T07:46:33.617Z,5.75
2018-07-31T07:49:31.069Z,6.03
2018-07-31T07:52:28.474Z,6.62
2018-07-31T07:55:25.676Z,6.60
2018-07-31T07:58:23.003Z,6.33
2018-07-31T08:01:20.179Z,6.17
2018-07-31T08:04:17.811Z,6.70
2018-07-31T08:07:15.343Z,7.00
2018-07-31T08:10:13.453Z,6.10
2018-07-31T08:13:10.867Z,6.53
2018-07-31T08:16:08.520Z,7.30
2018-07-31T08:19:06.214Z,6.33
2018-07-31T08:22:03.375Z,5.97
2018-07-31T08:25:00.732Z,6.10
2018-07-31T08:27:57.916Z,5.80
2018-07-31T08:30:55.914Z,5.95
2018-07-31T08:33:53.147Z,6.15
2018-07-31T08:36:51.275Z,6.08
2018-07-31T08:39:48.875Z,5.90
2018-07-31T08:42:47.020Z,6.30
2018-07-31T08:45:44.973Z,5.28
2018-07-31T08:48:42.107Z,5.55
2018-07-31T08:51:40.134Z,6.35
2018-07-31T08:54:37.823Z,5.60
2018-07-31T08:57:35.255Z,4.37
2018-07-31T09:00:32.354Z,5.08
2018-07-31T09:03:30.188Z,4.72
2018-07-31T09:06:28.050Z,4.37
2018-07-31T09:09:26.072Z,4.22
2018-07-31T09:12:23.499Z,4.47
2018-07-31T09:15:20.981Z,4.00
2018-07-31T09:18:18.192Z,4.05
2018-07-31T09:21:15.675Z,3.72
2018-07-31T09:24:13.163Z,3.58
2018-07-31T09:27:10.278Z,3.62
2018-07-31T09:30:08.480Z,3.37
2018-07-31T09:33:11.998Z,3.80
2018-07-31T09:36:09.436Z,3.33
2018-07-31T09:39:07.517Z,4.20
2018-07-31T09:42:04.855Z,4.12
2018-07-31T09:45:02.943Z,3.83
2018-07-31T09:48:00.235Z,3.50
2018-07-31T09:50:58.227Z,3.15
2018-07-31T09:53:55.445Z,3.67
2018-07-31T09:56:53.215Z,4.25
2018-07-31T09:59:51.319Z,3.47
2018-07-31T10:02:49.075Z,3.67
2018-07-31T10:05:46.454Z,3.40
2018-07-31T10:08:44.097Z,3.42
2018-07-31T10:11:41.935Z,3.58
2018-07-31T10:14:39.490Z,3.60
2018-07-31T10:17:37.473Z,3.55
2018-07-31T10:20:35.125Z,4.22
2018-07-31T10:23:32.325Z,4.03
2018-07-31T10:26:29.886Z,3.87
2018-07-31T10:29:27.709Z,3.30
2018-07-31T10:32:24.724Z,3.90
2018-07-31T10:35:22.613Z,3.60
2018-07-31T10:38:20.136Z,3.75
2018-07-31T10:41:17.819Z,3.62
2018-07-31T10:44:15.380Z,2.95
2018-07-31T10:47:12.943Z,4.00
2018-07-31T10:50:10.295Z,3.50
2018-07-31T10:53:08.146Z,3.33
2018-07-31T10:56:06.177Z,3.35
2018-07-31T10:59:04.240Z,3.92
2018-07-31T11:02:02.523Z,4.08
2018-07-31T11:04:59.692Z,3.27
2018-07-31T11:07:57.631Z,3.83
2018-07-31T11:10:55.598Z,3.20
2018-07-31T11:13:53.588Z,3.27
2018-07-31T11:16:51.563Z,3.25
2018-07-31T11:19:49.444Z,2.98
2018-07-31T11:22:46.912Z,3.35
2018-07-31T11:25:44.531Z,2.72
2018-07-31T11:28:42.116Z,3.42
2018-07-31T11:31:39.799Z,3.40
2018-07-31T11:34:37.070Z,2.90
2018-07-31T11:37:34.454Z,2.60
2018-07-31T11:40:32.603Z,2.30
2018-07-31T11:43:29.928Z,2.15
2018-07-31T11:46:27.652Z,2.55
2018-07-31T11:49:25.179Z,2.33
2018-07-31T11:52:22.112Z,2.40
2018-07-31T11:55:19.216Z,2.25
2018-07-31T11:58:16.561Z,2.47
2018-07-31T12:01:14.531Z,1.98
2018-07-31T12:04:12.429Z,2.02
2018-07-31T12:07:10.362Z,1.95
2018-07-31T12:10:08.369Z,2.00
2018-07-31T12:13:06.444Z,2.10
2018-07-31T12:16:03.510Z,2.20
2018-07-31T12:19:01.360Z,2.12
2018-07-31T12:21:59.251Z,2.25
2018-07-31T12:24:57.290Z,2.10
2018-07-31T12:27:54.619Z,2.02
2018-07-31T12:30:52.295Z,2.30
2018-07-31T12:33:50.151Z,2.40
2018-07-31T12:36:47.315Z,2.27
2018-07-31T12:39:44.622Z,2.27
2018-07-31T12:42:42.271Z,2.27
2018-07-31T12:45:39.950Z,2.45
2018-07-31T12:48:37.782Z,2.25
2018-07-31T12:51:35.176Z,2.45
2018-07-31T12:54:32.927Z,2.37
2018-07-31T12:57:30.483Z,2.20
2018-07-31T13:00:28.166Z,2.33
2018-07-31T13:03:25.919Z,2.75
2018-07-31T13:06:23.234Z,2.50
2018-07-31T13:09:21.505Z,2.72
2018-07-31T13:12:19.127Z,2.20
2018-07-31T13:15:17.044Z,2.60
2018-07-31T13:18:15.183Z,3.10
2018-07-31T13:21:12.237Z,2.40
2018-07-31T13:24:09.497Z,2.70
2018-07-31T13:27:07.515Z,2.77
2018-07-31T13:30:04.756Z,2.42
2018-07-31T13:33:02.814Z,2.37
2018-07-31T13:35:59.755Z,2.67
2018-07-31T13:38:57.558Z,2.77
2018-07-31T13:41:54.700Z,2.30
2018-07-31T13:44:51.743Z,2.40
2018-07-31T13:47:49.426Z,2.40
2018-07-31T13:50:47.302Z,2.80
2018-07-31T13:53:44.767Z,2.50
2018-07-31T13:56:42.213Z,2.50
2018-07-31T13:59:39.374Z,2.30
2018-07-31T14:02:36.930Z,2.62
2018-07-31T14:05:43.151Z,2.40
2018-07-31T14:08:41.489Z,2.80
2018-07-31T14:11:39.283Z,2.70
2018-07-31T14:14:36.858Z,3.00
2018-07-31T14:17:34.790Z,3.05
2018-07-31T14:20:31.986Z,2.87
2018-07-31T14:23:30.111Z,2.50
2018-07-31T14:26:28.026Z,2.50
2018-07-31T14:29:26.077Z,2.55
2018-07-31T14:32:24.133Z,2.40
2018-07-31T14:35:22.111Z,2.42
2018-07-31T14:38:19.878Z,2.30
2018-07-31T14:41:16.989Z,2.83
2018-07-31T14:44:14.631Z,2.25
2018-07-31T14:47:11.746Z,2.45
2018-07-31T14:50:09.919Z,2.08
2018-07-31T14:53:07.385Z,2.42
2018-07-31T14:56:05.465Z,2.72
2018-07-31T14:59:03.482Z,2.10
2018-07-31T15:02:00.539Z,2.58
2018-07-31T15:04:58.504Z,2.72
2018-07-31T15:07:55.482Z,2.40
2018-07-31T15:10:52.818Z,3.05
2018-07-31T15:13:50.883Z,2.55
2018-07-31T15:16:48.039Z,2.77
2018-07-31T15:19:46.096Z,2.27
2018-07-31T15:22:43.157Z,2.60
2018-07-31T15:25:41.362Z,2.40
2018-07-31T15:28:38.491Z,2.37
2018-07-31T15:31:36.582Z,2.40
2018-07-31T15:34:34.893Z,2.85
2018-07-31T15:37:32.944Z,2.45
2018-07-31T15:40:30.291Z,2.25
2018-07-31T15:43:28.491Z,1.95
2018-07-31T15:46:26.432Z,2.40
2018-07-31T15:49:24.425Z,2.47
2018-07-31T15:52:22.483Z,2.45
2018-07-31T15:55:20.240Z,2.02
2018-07-31T15:58:17.437Z,2.22
2018-07-31T16:01:15.169Z,2.33
2018-07-31T16:04:13.052Z,3.15
2018-07-31T16:07:11.098Z,2.42
2018-07-31T16:10:08.491Z,2.10
2018-07-31T16:13:06.556Z,1.72
2018-07-31T16:16:04.540Z,2.22
2018-07-31T16:19:02.616Z,2.70
2018-07-31T16:22:00.090Z,2.30
2018-07-31T16:24:58.146Z,7.67
2018-07-31T16:27:55.907Z,2.27
2018-07-31T16:30:53.299Z,1.87
2018-07-31T16:33:51.361Z,2.05
2018-07-31T16:36:49.119Z,1.80
2018-07-31T16:39:47.128Z,2.10
2018-07-31T16:42:44.263Z,2.10
2018-07-31T16:45:41.403Z,1.98
2018-07-31T16:48:38.980Z,2.15
2018-07-31T16:51:36.775Z,1.93
2018-07-31T16:54:34.774Z,2.22
2018-07-31T16:57:32.676Z,2.50
2018-07-31T17:00:30.661Z,3.03
2018-07-31T17:03:28.720Z,1.80
2018-07-31T17:06:26.839Z,2.60
2018-07-31T17:09:24.690Z,1.92
2018-07-31T17:12:22.735Z,2.00
2018-07-31T17:15:20.663Z,2.00
2018-07-31T17:18:18.833Z,2.42
2018-07-31T17:21:16.103Z,2.20
2018-07-31T17:24:14.207Z,2.13
2018-07-31T17:27:12.135Z,2.27
2018-07-31T17:30:09.305Z,2.27
2018-07-31T17:33:06.642Z,2.10
2018-07-31T17:36:04.748Z,2.63
2018-07-31T17:39:02.745Z,2.57
2018-07-31T17:41:59.881Z,2.60
2018-07-31T17:44:57.920Z,2.00
2018-07-31T17:47:55.884Z,2.00
2018-07-31T17:50:52.965Z,2.00
2018-07-31T17:53:50.201Z,2.23
2018-07-31T17:56:48.116Z,2.00
2018-07-31T17:59:45.499Z,2.00
2018-07-31T18:02:43.651Z,2.50
2018-07-31T18:05:41.549Z,1.90
2018-07-31T18:08:39.475Z,2.20
2018-07-31T18:11:36.632Z,2.87
2018-07-31T18:14:34.620Z,2.90
2018-07-31T18:17:32.911Z,2.43
2018-07-31T18:20:30.941Z,2.83
2018-07-31T18:23:28.967Z,2.60
2018-07-31T18:26:26.897Z,2.73
2018-07-31T18:29:24.042Z,2.87
2018-07-31T18:32:21.168Z,3.53
2018-07-31T18:35:18.198Z,3.00
2018-07-31T18:38:16.349Z,3.23
2018-07-31T18:41:13.694Z,3.90
2018-07-31T18:44:11.587Z,3.80
2018-07-31T18:47:09.496Z,3.47
2018-07-31T18:50:06.591Z,3.60
2018-07-31T18:53:03.592Z,3.23
2018-07-31T18:56:00.742Z,3.50
2018-07-31T18:58:58.705Z,3.53
2018-07-31T19:01:56.855Z,3.30
2018-07-31T19:04:54.706Z,3.40
2018-07-31T19:07:52.537Z,3.60
2018-07-31T19:10:49.915Z,3.37
2018-07-31T19:13:47.547Z,3.70
2018-07-31T19:16:45.667Z,3.37
2018-07-31T19:19:42.892Z,3.30
2018-07-31T19:22:40.950Z,3.50
2018-07-31T19:25:38.936Z,3.60
2018-07-31T19:28:36.945Z,3.20
2018-07-31T19:31:34.773Z,3.67
2018-07-31T19:34:32.736Z,3.53
2018-07-31T19:37:30.675Z,3.67
2018-07-31T19:40:28.724Z,4.00
2018-07-31T19:43:25.715Z,3.27
2018-07-31T19:46:22.870Z,3.57
2018-07-31T19:49:19.881Z,3.77
2018-07-31T19:52:17.101Z,3.23
2018-07-31T19:55:15.081Z,3.77
2018-07-31T19:58:12.526Z,3.53
2018-07-31T20:01:10.572Z,3.70
2018-07-31T20:04:07.801Z,3.33
2018-07-31T20:07:05.892Z,3.00
2018-07-31T20:10:02.997Z,3.50
2018-07-31T20:13:01.200Z,3.50
2018-07-31T20:15:59.064Z,3.20
2018-07-31T20:18:57.146Z,3.30
2018-07-31T20:21:54.495Z,3.23
2018-07-31T20:24:51.451Z,3.50
2018-07-31T20:27:49.688Z,3.40
2018-07-31T20:30:47.596Z,2.77
2018-07-31T20:33:46.012Z,2.70
2018-07-31T20:36:43.112Z,3.57
2018-07-31T20:39:41.139Z,3.20
2018-07-31T20:42:39.206Z,2.93
2018-07-31T20:45:37.179Z,2.57
2018-07-31T20:48:35.221Z,2.90
2018-07-31T20:51:33.246Z,2.50
2018-07-31T20:54:30.390Z,2.80
2018-07-31T20:57:28.371Z,3.40
2018-07-31T21:00:25.817Z,2.80
2018-07-31T21:03:23.787Z,3.00
2018-07-31T21:06:20.748Z,2.33
2018-07-31T21:09:24.687Z,2.23
2018-07-31T21:12:22.511Z,2.80
2018-07-31T21:15:20.600Z,2.57
2018-07-31T21:18:18.830Z,2.67
2018-07-31T21:21:16.748Z,2.43
2018-07-31T21:24:13.759Z,2.70
2018-07-31T21:27:11.634Z,2.37
2018-07-31T21:30:08.851Z,2.60
2018-07-31T21:33:05.960Z,2.53
2018-07-31T21:36:03.625Z,2.27
2018-07-31T21:39:01.555Z,2.43
2018-07-31T21:41:59.639Z,2.10
2018-07-31T21:44:57.696Z,2.07
2018-07-31T21:47:55.805Z,2.53
2018-07-31T21:50:53.860Z,2.40
2018-07-31T21:53:51.019Z,2.40
2018-07-31T21:56:48.057Z,1.67
2018-07-31T21:59:45.172Z,1.90
2018-07-31T22:02:43.154Z,2.17
2018-07-31T22:05:40.167Z,1.97
2018-07-31T22:08:38.063Z,1.90
2018-07-31T22:11:35.332Z,2.73
2018-07-31T22:14:33.420Z,2.43
2018-07-31T22:17:31.500Z,2.10
2018-07-31T22:20:29.697Z,1.97
2018-07-31T22:23:26.935Z,2.37
2018-07-31T22:26:25.038Z,2.20
2018-07-31T22:29:21.923Z,2.10
2018-07-31T22:32:19.740Z,2.17
2018-07-31T22:35:16.736Z,2.30
2018-07-31T22:38:13.924Z,1.70
2018-07-31T22:41:11.083Z,2.30
2018-07-31T22:44:08.159Z,2.20
2018-07-31T22:47:05.320Z,2.40
2018-07-31T22:50:02.873Z,2.40
2018-07-31T22:53:00.847Z,2.27
2018-07-31T22:55:57.895Z,1.70
2018-07-31T22:58:56.103Z,2.50
2018-07-31T23:01:53.957Z,2.30
2018-07-31T23:04:51.946Z,1.83
2018-07-31T23:07:49.715Z,1.93
2018-07-31T23:10:47.551Z,1.97
2018-07-31T23:13:45.418Z,2.30
2018-07-31T23:16:44.521Z,2.20
2018-07-31T23:19:41.557Z,2.27
2018-07-31T23:22:50.828Z,2.27
2018-07-31T23:25:48.916Z,2.10
2018-07-31T23:28:46.976Z,1.93
2018-07-31T23:31:45.935Z,1.97
2018-07-31T23:34:43.913Z,2.03
2018-07-31T23:37:41.250Z,2.23
2018-07-31T23:40:38.464Z,2.00
2018-07-31T23:43:36.444Z,2.13
2018-07-31T23:46:34.558Z,2.10
2018-07-31T23:49:32.591Z,2.13
2018-07-31T23:52:30.572Z,2.03
2018-07-31T23:55:28.556Z,2.13
2018-07-31T23:58:25.721Z,2.17
